Time;durP1;ratioP1;P1;durP2;ratioP2;P2;SDS_P1;SDS_P2;PMS_P1;PMS_P2;Temp;Humidity;BMP_temperature;BMP_pressure;BME280_temperature;BME280_humidity;BME280_pressure;Samples;Min_cycle;Max_cycle;Signal;HPM_P1;HPM_P2
2022/11/02 00:00:53;;;;;;;7.68;2.38;;;10.00;99.90;;;;;;5012372;28;20258;-64
2022/11/02 00:03:19;;;;;;;4.30;2.80;;;10.00;99.90;;;;;;5011614;28;20575;-64
2022/11/02 00:05:44;;;;;;;4.50;2.60;;;10.20;99.90;;;;;;5012830;28;20289;-64
2022/11/02 00:08:10;;;;;;;3.40;2.30;;;10.10;99.90;;;;;;5005344;28;20207;-64
2022/11/02 00:10:36;;;;;;;3.53;2.50;;;10.10;99.90;;;;;;5019533;28;20211;-64
2022/11/02 00:13:01;;;;;;;4.03;2.20;;;10.10;99.90;;;;;;5012567;28;20598;-64
2022/11/02 00:15:31;;;;;;;3.43;2.30;;;9.90;99.90;;;;;;5004769;28;20218;-64
2022/11/02 00:18:15;;;;;;;4.22;2.33;;;10.00;99.90;;;;;;5014322;28;20241;-64
2022/11/02 00:20:42;;;;;;;6.00;2.40;;;10.10;99.90;;;;;;5019455;28;20187;-64
2022/11/02 00:23:11;;;;;;;3.35;2.50;;;10.20;99.90;;;;;;5010948;28;20287;-63
2022/11/02 00:25:43;;;;;;;6.22;2.38;;;10.10;99.90;;;;;;5010642;28;20585;-64
2022/11/02 00:28:09;;;;;;;4.72;2.63;;;9.90;99.90;;;;;;5019260;28;20191;-64
2022/11/02 00:30:36;;;;;;;4.00;2.20;;;10.00;99.90;;;;;;5016649;28;20191;-65
2022/11/02 00:33:02;;;;;;;7.28;2.85;;;10.10;99.90;;;;;;5014172;28;20444;-65
2022/11/02 00:35:27;;;;;;;4.23;2.40;;;10.00;99.90;;;;;;5017173;28;20215;-65
2022/11/02 00:37:53;;;;;;;5.20;2.57;;;10.10;99.90;;;;;;4994251;28;20254;-65
2022/11/02 00:40:19;;;;;;;4.87;3.20;;;10.20;99.90;;;;;;5009225;28;20215;-65
2022/11/02 00:42:44;;;;;;;3.53;2.50;;;10.30;99.90;;;;;;5011603;28;20562;-65
2022/11/02 00:45:10;;;;;;;4.70;2.40;;;10.00;99.90;;;;;;5011581;28;20596;-65
2022/11/02 00:47:36;;;;;;;4.10;2.40;;;10.10;99.90;;;;;;5006223;28;20183;-65
2022/11/02 00:50:02;;;;;;;4.93;2.22;;;10.40;99.90;;;;;;5011782;28;20633;-65
2022/11/02 00:52:28;;;;;;;3.47;2.58;;;10.30;99.90;;;;;;5011871;28;20189;-65
2022/11/02 00:54:54;;;;;;;2.30;2.03;;;10.10;99.90;;;;;;5006356;28;20576;-65
2022/11/02 00:57:19;;;;;;;5.57;2.40;;;10.20;99.90;;;;;;5008173;28;20192;-65
2022/11/02 00:59:45;;;;;;;4.57;2.40;;;10.30;99.90;;;;;;5010648;28;20604;-65
2022/11/02 01:02:10;;;;;;;3.20;2.83;;;10.40;99.90;;;;;;5010781;28;20578;-65
2022/11/02 01:04:36;;;;;;;2.90;2.00;;;10.10;99.90;;;;;;5008384;28;20649;-65
2022/11/02 01:07:02;;;;;;;3.80;2.30;;;10.50;99.90;;;;;;5011339;28;20526;-65
2022/11/02 01:09:28;;;;;;;3.35;2.70;;;10.40;99.90;;;;;;5011616;28;20195;-65
2022/11/02 01:11:54;;;;;;;4.67;2.50;;;10.50;99.90;;;;;;5011886;28;20644;-65
2022/11/02 01:14:20;;;;;;;4.13;2.57;;;10.30;99.90;;;;;;5007261;28;20429;-65
2022/11/02 01:16:46;;;;;;;5.63;2.40;;;10.20;99.90;;;;;;5010615;28;20218;-65
2022/11/02 01:19:12;;;;;;;4.33;2.00;;;10.90;99.90;;;;;;5002823;28;20277;-65
2022/11/02 01:21:37;;;;;;;4.30;2.20;;;10.40;99.90;;;;;;5010534;28;20658;-65
2022/11/02 01:24:03;;;;;;;3.70;2.03;;;10.40;99.90;;;;;;5006655;28;20267;-65
2022/11/02 01:26:29;;;;;;;3.90;2.33;;;10.50;99.90;;;;;;5001255;28;20199;-64
2022/11/02 01:28:55;;;;;;;5.10;2.20;;;10.50;99.90;;;;;;5010525;28;20187;-65
2022/11/02 01:31:20;;;;;;;5.07;2.00;;;10.40;99.90;;;;;;5011787;28;20230;-65
2022/11/02 01:33:46;;;;;;;3.80;2.17;;;10.50;99.90;;;;;;5011801;28;20199;-65
2022/11/02 01:36:14;;;;;;;3.70;2.20;;;10.60;99.90;;;;;;5011483;28;20253;-65
2022/11/02 01:38:40;;;;;;;2.95;2.70;;;10.40;99.90;;;;;;5006725;28;20249;-65
2022/11/02 01:41:06;;;;;;;2.28;1.52;;;10.60;99.90;;;;;;5011238;28;20195;-65
2022/11/02 01:43:35;;;;;;;3.40;2.60;;;10.70;99.90;;;;;;5011309;28;20220;-65
2022/11/02 01:46:04;;;;;;;2.65;2.20;;;10.50;99.90;;;;;;5010688;28;20462;-65
2022/11/02 01:48:43;;;;;;;2.45;2.15;;;10.70;99.90;;;;;;5014816;28;20544;-65
2022/11/02 01:51:11;;;;;;;2.75;1.98;;;10.80;99.90;;;;;;4990261;28;20622;-65
2022/11/02 01:53:40;;;;;;;4.32;2.60;;;10.70;99.90;;;;;;5008041;28;20579;-65
2022/11/02 01:56:08;;;;;;;2.33;1.65;;;10.60;99.90;;;;;;5009957;28;20207;-65
2022/11/02 01:58:34;;;;;;;4.55;2.20;;;10.70;99.90;;;;;;5006211;28;20180;-65
2022/11/02 02:01:01;;;;;;;4.82;2.33;;;10.90;99.90;;;;;;5010292;28;20242;-65
2022/11/02 02:03:30;;;;;;;5.43;2.17;;;10.70;99.90;;;;;;5009743;28;20663;-65
2022/11/02 02:06:01;;;;;;;3.60;2.40;;;10.70;99.90;;;;;;4997221;28;20237;-65
2022/11/02 02:08:28;;;;;;;3.42;1.98;;;10.70;99.90;;;;;;5006749;28;20587;-65
2022/11/02 02:10:57;;;;;;;3.28;2.42;;;10.90;99.90;;;;;;5016374;28;20180;-64
2022/11/02 02:13:25;;;;;;;2.90;1.80;;;11.10;99.90;;;;;;5008615;28;20276;-65
2022/11/02 02:16:42;;;;;;;2.90;2.05;;;10.80;99.90;;;;;;5018417;28;20583;-65
2022/11/02 02:19:27;;;;;;;7.43;2.33;;;11.10;99.90;;;;;;4962692;28;20221;-65
2022/11/02 02:22:28;;;;;;;2.28;2.05;;;11.00;99.90;;;;;;5009240;28;20283;-65
2022/11/02 02:25:05;;;;;;;2.40;2.20;;;11.10;99.90;;;;;;5016398;28;20695;-65
2022/11/02 02:27:48;;;;;;;2.80;2.10;;;11.00;99.90;;;;;;5008203;28;20190;-65
2022/11/02 02:30:15;;;;;;;3.58;2.45;;;10.90;99.90;;;;;;5011264;28;20596;-65
2022/11/02 02:32:52;;;;;;;2.10;1.65;;;11.00;99.90;;;;;;5016963;28;20552;-65
2022/11/02 02:35:36;;;;;;;3.15;2.33;;;10.90;99.90;;;;;;5013060;28;20207;-65
2022/11/02 02:38:07;;;;;;;3.58;2.00;;;10.90;99.90;;;;;;5002661;28;20249;-65
2022/11/02 02:40:34;;;;;;;3.78;2.00;;;11.00;99.90;;;;;;5009175;28;20670;-65
2022/11/02 02:43:06;;;;;;;2.25;2.00;;;11.20;99.90;;;;;;5009854;28;20712;-65
2022/11/02 02:45:49;;;;;;;3.45;1.95;;;11.00;99.90;;;;;;5007111;28;20679;-65
2022/11/02 02:48:20;;;;;;;3.25;2.40;;;10.90;99.90;;;;;;5003265;28;20291;-65
2022/11/02 02:50:51;;;;;;;2.97;2.67;;;10.70;99.90;;;;;;5009715;28;20188;-65
2022/11/02 02:53:26;;;;;;;2.20;2.00;;;10.70;99.90;;;;;;5008904;28;20189;-65
2022/11/02 02:55:52;;;;;;;3.35;2.80;;;10.90;99.90;;;;;;5009184;28;20620;-65
2022/11/02 02:58:23;;;;;;;2.15;1.92;;;10.90;99.90;;;;;;5005013;28;20688;-65
2022/11/02 03:00:49;;;;;;;4.28;2.70;;;10.70;99.90;;;;;;5002748;28;20187;-65
2022/11/02 03:03:22;;;;;;;6.07;2.40;;;11.00;99.90;;;;;;5009928;28;20203;-65
2022/11/02 03:06:19;;;;;;;3.38;2.58;;;11.10;99.90;;;;;;5009686;28;20464;-65
2022/11/02 03:09:00;;;;;;;2.78;2.50;;;10.90;99.90;;;;;;5007454;28;20193;-65
2022/11/02 03:11:27;;;;;;;3.92;2.42;;;10.90;99.90;;;;;;5006334;28;20733;-65
2022/11/02 03:14:07;;;;;;;2.85;2.30;;;11.00;99.90;;;;;;5011346;28;20181;-63
2022/11/02 03:16:44;;;;;;;4.15;2.38;;;10.90;99.90;;;;;;5008742;28;20927;-65
2022/11/02 03:19:49;;;;;;;4.45;2.50;;;10.90;99.90;;;;;;5014703;28;20219;-65
2022/11/02 03:22:32;;;;;;;4.07;2.58;;;10.80;99.90;;;;;;4983075;28;20226;-65
2022/11/02 03:25:06;;;;;;;2.88;2.40;;;10.90;99.90;;;;;;4996349;28;20210;-63
2022/11/02 03:27:49;;;;;;;3.25;2.15;;;11.00;99.90;;;;;;5005451;28;20622;-65
2022/11/02 03:30:19;;;;;;;2.88;2.10;;;10.70;99.90;;;;;;5009965;28;20186;-64
2022/11/02 03:33:03;;;;;;;2.65;2.28;;;11.00;99.90;;;;;;5013298;28;20673;-64
2022/11/02 03:35:54;;;;;;;6.35;2.05;;;10.90;99.90;;;;;;5010727;28;20213;-64
2022/11/02 03:38:35;;;;;;;2.00;1.90;;;11.20;99.90;;;;;;5006278;28;20187;-64
2022/11/02 03:41:03;;;;;;;5.32;2.25;;;11.10;99.90;;;;;;5012536;28;20295;-64
2022/11/02 03:43:33;;;;;;;5.63;2.75;;;11.10;99.90;;;;;;5017473;28;20741;-64
2022/11/02 03:46:01;;;;;;;3.00;2.40;;;11.30;99.90;;;;;;5014731;28;20209;-64
2022/11/02 03:48:42;;;;;;;3.55;2.10;;;11.20;99.90;;;;;;5007952;28;20251;-64
2022/11/02 03:51:12;;;;;;;2.58;2.25;;;11.00;99.90;;;;;;5012432;28;20263;-64
2022/11/02 03:53:43;;;;;;;4.22;1.90;;;11.10;99.90;;;;;;5008990;28;20276;-64
2022/11/02 03:56:15;;;;;;;2.40;2.00;;;11.00;99.90;;;;;;5010865;28;20266;-64
2022/11/02 03:58:41;;;;;;;4.35;2.35;;;11.00;99.90;;;;;;5009539;28;20599;-64
2022/11/02 04:01:07;;;;;;;4.20;2.53;;;11.00;99.90;;;;;;4994943;28;20193;-64
2022/11/02 04:03:37;;;;;;;6.10;2.35;;;11.00;99.90;;;;;;5008518;28;20260;-64
2022/11/02 04:06:02;;;;;;;2.97;1.95;;;11.20;99.90;;;;;;5008920;28;20199;-64
2022/11/02 04:08:34;;;;;;;3.73;2.37;;;11.00;99.90;;;;;;5012434;28;20250;-64
2022/11/02 04:16:28;;;;;;;6.45;2.90;;;11.00;99.90;;;;;;5006126;28;20218;-64
2022/11/02 04:21:38;;;;;;;3.58;2.80;;;11.10;99.90;;;;;;5012983;28;20202;-64
2022/11/02 04:26:48;;;;;;;3.50;2.13;;;11.00;99.90;;;;;;5011332;28;20195;-64
2022/11/02 04:29:14;;;;;;;3.43;2.77;;;11.10;99.90;;;;;;5011725;28;20552;-64
2022/11/02 04:31:39;;;;;;;3.90;3.40;;;11.00;99.90;;;;;;5010637;28;20189;-65
2022/11/02 04:34:05;;;;;;;2.70;2.40;;;11.00;99.90;;;;;;5011913;28;20252;-64
2022/11/02 04:36:31;;;;;;;4.33;2.30;;;11.10;99.90;;;;;;5011350;28;20618;-64
2022/11/02 04:38:57;;;;;;;3.15;2.33;;;11.00;99.90;;;;;;4999010;28;20188;-65
2022/11/02 04:41:41;;;;;;;3.07;2.33;;;10.90;99.90;;;;;;5011175;28;20299;-64
2022/11/02 04:44:13;;;;;;;5.13;2.30;;;11.30;99.90;;;;;;5011760;28;20597;-65
2022/11/02 04:46:40;;;;;;;7.80;2.83;;;11.00;99.90;;;;;;5011406;28;20660;-65
2022/11/02 04:49:06;;;;;;;4.32;2.40;;;10.80;99.90;;;;;;5006836;28;20191;-64
2022/11/02 04:51:32;;;;;;;4.32;2.33;;;10.80;99.90;;;;;;5011775;28;20213;-64
2022/11/02 04:53:58;;;;;;;4.93;3.08;;;10.90;99.90;;;;;;5009998;28;20267;-64
2022/11/02 04:56:25;;;;;;;3.65;2.17;;;10.90;99.90;;;;;;4993584;28;20207;-65
2022/11/02 04:58:54;;;;;;;3.88;2.70;;;10.90;99.90;;;;;;5010625;28;20738;-65
2022/11/02 05:01:20;;;;;;;2.10;1.90;;;10.90;99.90;;;;;;5010386;28;20190;-65
2022/11/02 05:03:47;;;;;;;8.07;2.60;;;11.00;99.90;;;;;;5015985;28;20238;-64
2022/11/02 05:06:13;;;;;;;2.88;1.83;;;10.80;99.90;;;;;;5007423;28;20211;-64
2022/11/02 05:08:39;;;;;;;3.45;2.60;;;10.90;99.90;;;;;;4999984;28;21571;-65
2022/11/02 05:11:05;;;;;;;3.73;2.53;;;11.00;99.90;;;;;;5011749;28;20215;-64
2022/11/02 05:13:31;;;;;;;2.77;2.30;;;10.80;99.90;;;;;;5012357;28;20443;-64
2022/11/02 05:15:58;;;;;;;4.83;2.90;;;10.80;99.90;;;;;;5006733;28;20437;-64
2022/11/02 05:18:24;;;;;;;2.90;2.00;;;10.80;99.90;;;;;;5011567;28;20447;-64
2022/11/02 05:20:56;;;;;;;2.50;2.15;;;10.80;99.90;;;;;;4990013;28;20227;-64
2022/11/02 05:23:22;;;;;;;3.25;2.85;;;10.60;99.90;;;;;;5009739;28;20218;-64
2022/11/02 05:25:55;;;;;;;3.88;2.10;;;10.50;99.90;;;;;;5011059;28;20207;-64
2022/11/02 05:28:22;;;;;;;2.40;2.15;;;10.90;99.90;;;;;;5009130;28;20679;-64
2022/11/02 05:30:47;;;;;;;3.95;2.38;;;10.50;99.90;;;;;;5019181;28;20195;-64
2022/11/02 05:33:13;;;;;;;3.33;2.37;;;10.60;99.90;;;;;;5010398;28;20261;-64
2022/11/02 05:35:39;;;;;;;6.00;2.80;;;10.70;99.90;;;;;;5020680;28;20699;-64
2022/11/02 05:38:04;;;;;;;3.83;2.37;;;10.30;99.90;;;;;;5016435;28;20217;-64
2022/11/02 05:40:30;;;;;;;7.37;3.07;;;10.60;99.90;;;;;;5010451;28;20603;-64
2022/11/02 05:43:00;;;;;;;4.87;2.63;;;10.40;99.90;;;;;;5013002;28;20224;-64
2022/11/02 05:45:25;;;;;;;2.92;2.22;;;10.40;99.90;;;;;;5005864;28;20198;-64
2022/11/02 05:47:51;;;;;;;3.80;2.70;;;10.70;99.90;;;;;;5006378;28;20187;-64
2022/11/02 05:50:17;;;;;;;3.93;2.63;;;10.60;99.90;;;;;;5008594;28;20973;-64
2022/11/02 05:52:42;;;;;;;2.90;2.30;;;10.40;99.90;;;;;;5005907;28;20192;-64
2022/11/02 05:55:08;;;;;;;6.50;2.33;;;10.50;99.90;;;;;;5006472;28;20203;-64
2022/11/02 05:57:33;;;;;;;3.57;2.50;;;10.30;99.90;;;;;;5010459;28;20233;-64
2022/11/02 05:59:59;;;;;;;3.10;2.40;;;10.40;99.90;;;;;;4992737;28;20190;-64
2022/11/02 06:02:25;;;;;;;4.97;3.17;;;10.50;99.90;;;;;;5010931;28;20447;-65
2022/11/02 06:04:51;;;;;;;4.63;2.50;;;10.50;99.90;;;;;;5011703;28;20441;-65
2022/11/02 06:07:16;;;;;;;3.90;2.30;;;10.30;99.90;;;;;;5008702;28;20180;-65
2022/11/02 06:09:42;;;;;;;5.13;2.93;;;10.50;99.90;;;;;;5008966;28;20284;-65
2022/11/02 06:12:08;;;;;;;4.53;2.77;;;10.40;99.90;;;;;;5009399;28;20203;-64
2022/11/02 06:14:33;;;;;;;5.00;2.37;;;10.40;99.90;;;;;;5009998;28;20198;-64
2022/11/02 06:16:59;;;;;;;3.53;2.60;;;10.60;99.90;;;;;;4996893;28;20553;-65
2022/11/02 06:19:24;;;;;;;5.17;2.77;;;10.60;99.90;;;;;;5007394;28;20656;-64
2022/11/02 06:21:50;;;;;;;8.37;2.80;;;10.50;99.90;;;;;;5007749;28;20225;-64
2022/11/02 06:24:16;;;;;;;2.60;2.23;;;10.60;99.90;;;;;;5006018;28;20198;-64
2022/11/02 06:26:41;;;;;;;3.70;2.60;;;10.50;99.90;;;;;;5008977;28;20221;-64
2022/11/02 06:29:07;;;;;;;4.90;2.80;;;10.80;99.90;;;;;;4992044;28;20266;-66
2022/11/02 06:31:33;;;;;;;6.03;2.70;;;10.60;99.90;;;;;;5009202;28;20182;-64
2022/11/02 06:33:58;;;;;;;3.97;2.37;;;10.90;99.90;;;;;;5007654;28;20199;-64
2022/11/02 06:36:24;;;;;;;6.30;2.67;;;10.90;99.90;;;;;;5010606;28;20207;-64
2022/11/02 06:38:50;;;;;;;5.80;2.75;;;10.80;99.90;;;;;;5008741;28;20212;-64
2022/11/02 06:41:16;;;;;;;5.00;3.07;;;11.10;99.90;;;;;;5007939;28;20217;-64
2022/11/02 06:43:41;;;;;;;4.10;2.60;;;10.90;99.90;;;;;;5010178;28;20217;-64
2022/11/02 06:46:07;;;;;;;3.07;2.77;;;11.00;99.90;;;;;;5003653;28;20213;-64
2022/11/02 06:48:44;;;;;;;9.47;4.37;;;11.10;99.90;;;;;;5002989;28;20650;-64
2022/11/02 06:51:11;;;;;;;3.70;2.90;;;11.00;99.90;;;;;;4995020;28;20187;-64
2022/11/02 06:53:36;;;;;;;6.30;3.97;;;11.30;99.90;;;;;;5009907;28;20192;-64
2022/11/02 06:56:02;;;;;;;5.87;3.90;;;11.80;99.90;;;;;;5012236;28;20199;-64
2022/11/02 06:58:28;;;;;;;3.87;2.30;;;11.40;99.90;;;;;;5000162;28;20806;-64
2022/11/02 07:00:59;;;;;;;4.43;3.05;;;11.70;99.90;;;;;;5012880;28;20450;-64
2022/11/02 07:03:26;;;;;;;3.78;2.40;;;11.70;99.90;;;;;;5013715;28;20217;-64
2022/11/02 07:05:52;;;;;;;5.75;3.72;;;11.90;99.90;;;;;;5020912;28;20791;-64
2022/11/02 07:08:19;;;;;;;2.55;2.08;;;11.60;99.90;;;;;;5007673;28;20277;-64
2022/11/02 07:10:45;;;;;;;9.43;4.50;;;11.80;99.90;;;;;;5020571;28;20294;-64
2022/11/02 07:13:10;;;;;;;3.30;2.17;;;11.90;99.90;;;;;;5016876;28;20277;-64
2022/11/02 07:15:36;;;;;;;2.30;2.10;;;11.80;99.90;;;;;;5013070;28;20544;-63
2022/11/02 07:18:02;;;;;;;6.47;2.40;;;11.90;99.90;;;;;;5005399;28;20689;-62
2022/11/02 07:20:29;;;;;;;6.43;2.70;;;11.80;99.90;;;;;;5012754;28;20192;-64
2022/11/02 07:22:57;;;;;;;6.20;2.53;;;12.00;99.90;;;;;;5012243;28;20510;-64
2022/11/02 07:25:23;;;;;;;4.93;3.08;;;12.00;99.90;;;;;;5013424;28;20308;-64
2022/11/02 07:27:49;;;;;;;9.13;2.85;;;12.10;99.90;;;;;;5009709;28;20228;-64
2022/11/02 07:30:15;;;;;;;6.73;3.23;;;12.30;99.90;;;;;;5012395;28;20556;-63
2022/11/02 07:32:42;;;;;;;6.20;3.10;;;12.30;99.90;;;;;;5010037;28;20643;-63
2022/11/02 07:35:10;;;;;;;6.53;3.30;;;12.50;99.90;;;;;;5012048;28;20671;-63
2022/11/02 07:37:36;;;;;;;6.00;2.97;;;12.60;99.90;;;;;;5011815;28;20200;-63
2022/11/02 07:40:02;;;;;;;5.63;2.50;;;12.80;99.90;;;;;;4997558;28;20553;-64
2022/11/02 07:42:27;;;;;;;6.00;2.72;;;13.00;99.90;;;;;;5013947;28;20356;-64
2022/11/02 07:44:53;;;;;;;5.70;3.93;;;12.90;99.90;;;;;;5011313;28;20293;-64
2022/11/02 07:47:19;;;;;;;7.07;3.00;;;12.80;99.90;;;;;;5011877;28;20183;-64
2022/11/02 07:49:44;;;;;;;7.73;3.70;;;13.00;99.90;;;;;;5010419;28;20198;-64
2022/11/02 07:52:10;;;;;;;11.03;5.93;;;13.10;99.90;;;;;;5007865;28;20217;-65
2022/11/02 07:54:35;;;;;;;9.87;3.33;;;13.30;99.90;;;;;;5009674;28;20199;-64
2022/11/02 07:57:01;;;;;;;5.90;3.07;;;13.30;99.90;;;;;;5010848;28;20260;-65
2022/11/02 07:59:26;;;;;;;6.60;3.73;;;13.50;99.90;;;;;;5011741;28;20252;-64
2022/11/02 08:01:52;;;;;;;8.40;2.60;;;13.80;99.90;;;;;;5009610;28;20238;-64
2022/11/02 08:04:17;;;;;;;12.20;3.67;;;13.80;99.90;;;;;;5011709;28;20475;-65
2022/11/02 08:06:43;;;;;;;8.87;3.03;;;13.90;99.90;;;;;;5012389;28;20175;-65
2022/11/02 08:09:09;;;;;;;1.83;1.73;;;14.00;99.90;;;;;;5010622;28;20187;-66
2022/11/02 08:11:34;;;;;;;3.83;2.13;;;14.40;99.90;;;;;;5009403;28;20190;-66
2022/11/02 08:14:01;;;;;;;4.93;2.30;;;14.50;99.90;;;;;;5011625;28;20179;-65
2022/11/02 08:16:28;;;;;;;5.90;1.83;;;14.60;99.90;;;;;;5013681;28;20221;-66
2022/11/02 08:18:53;;;;;;;5.95;2.47;;;14.80;99.90;;;;;;5008656;28;20207;-65
2022/11/02 08:21:19;;;;;;;7.03;2.23;;;15.20;99.90;;;;;;5011620;28;20671;-66
2022/11/02 08:23:45;;;;;;;5.50;2.00;;;15.20;99.90;;;;;;5010334;28;20948;-67
2022/11/02 08:26:11;;;;;;;3.87;1.70;;;15.10;99.90;;;;;;5011173;28;20445;-65
2022/11/02 08:28:39;;;;;;;5.97;2.53;;;15.30;99.90;;;;;;5011662;28;20186;-65
2022/11/02 08:31:06;;;;;;;3.78;3.00;;;15.30;99.90;;;;;;5005649;28;20210;-66
2022/11/02 08:33:32;;;;;;;6.47;3.10;;;15.30;99.90;;;;;;5011381;28;20277;-66
2022/11/02 08:36:03;;;;;;;12.40;2.17;;;15.60;99.90;;;;;;5011316;28;20289;-66
2022/11/02 08:38:29;;;;;;;9.60;3.42;;;15.90;99.90;;;;;;5010114;28;20441;-66
2022/11/02 08:40:55;;;;;;;6.72;1.95;;;16.00;99.90;;;;;;5011719;28;20241;-64
2022/11/02 08:43:21;;;;;;;3.17;1.95;;;16.10;99.90;;;;;;5011045;28;20258;-64
2022/11/02 08:45:47;;;;;;;4.27;1.80;;;16.30;99.90;;;;;;5010818;28;20198;-64
2022/11/02 08:48:13;;;;;;;5.20;2.60;;;16.40;99.90;;;;;;5006332;28;20487;-64
2022/11/02 08:50:38;;;;;;;3.47;2.03;;;16.30;99.90;;;;;;5013213;28;20217;-63
2022/11/02 08:53:05;;;;;;;10.90;2.43;;;16.50;99.90;;;;;;5010530;28;20542;-63
2022/11/02 08:55:31;;;;;;;5.97;2.22;;;16.30;99.90;;;;;;5011180;28;20511;-65
2022/11/02 08:57:58;;;;;;;3.43;1.90;;;16.30;99.90;;;;;;5010783;28;20596;-66
2022/11/02 09:00:29;;;;;;;7.10;2.10;;;16.60;99.90;;;;;;5011538;28;20827;-63
2022/11/02 09:03:04;;;;;;;4.65;2.35;;;16.30;99.90;;;;;;5009346;28;20234;-63
2022/11/02 09:05:32;;;;;;;4.18;2.13;;;16.20;99.90;;;;;;5012798;28;20194;-63
2022/11/02 09:08:00;;;;;;;5.80;3.30;;;16.50;99.90;;;;;;5009648;28;20182;-66
2022/11/02 09:10:27;;;;;;;4.40;1.85;;;16.60;99.90;;;;;;5011210;28;20179;-65
2022/11/02 09:12:53;;;;;;;2.13;1.80;;;16.70;99.90;;;;;;5008898;28;20196;-64
2022/11/02 09:15:19;;;;;;;4.40;1.90;;;16.40;99.90;;;;;;5008961;28;20294;-65
2022/11/02 09:17:48;;;;;;;3.20;1.77;;;16.70;99.90;;;;;;5007839;28;20450;-65
2022/11/02 09:20:15;;;;;;;1.90;1.70;;;16.70;99.90;;;;;;5017559;28;20508;-65
2022/11/02 09:22:42;;;;;;;3.40;1.50;;;16.70;99.90;;;;;;4994283;28;20206;-65
2022/11/02 09:25:07;;;;;;;3.75;1.30;;;16.60;99.90;;;;;;5018039;28;20214;-65
2022/11/02 09:27:33;;;;;;;7.77;1.63;;;16.60;99.90;;;;;;5018543;28;20561;-64
2022/11/02 09:29:59;;;;;;;4.10;1.73;;;16.70;99.90;;;;;;5011719;28;20934;-65
2022/11/02 09:32:24;;;;;;;2.50;2.20;;;16.70;99.90;;;;;;5014015;28;20191;-65
2022/11/02 09:34:51;;;;;;;3.00;1.80;;;16.80;99.90;;;;;;5010937;28;20218;-65
2022/11/02 09:37:16;;;;;;;2.33;1.20;;;16.60;99.90;;;;;;5006928;28;20564;-65
2022/11/02 09:39:42;;;;;;;3.73;1.57;;;16.80;99.90;;;;;;5015381;28;20653;-64
2022/11/02 09:42:19;;;;;;;2.70;1.33;;;17.10;99.80;;;;;;5010791;28;20477;-65
2022/11/02 09:45:00;;;;;;;3.08;1.45;;;17.10;99.10;;;;;;5012270;28;20218;-65
2022/11/02 09:47:28;;;;;;;2.90;1.55;;;16.70;98.50;;;;;;4997826;28;20230;-64
2022/11/02 09:49:57;;;;;;;4.18;1.60;;;16.60;98.50;;;;;;5009429;28;20261;-64
2022/11/02 09:52:36;;;;;;;3.38;1.45;;;17.00;98.60;;;;;;5010461;28;20185;-64
2022/11/02 09:55:09;;;;;;;3.30;1.85;;;16.60;98.00;;;;;;5010125;28;20614;-64
2022/11/02 09:57:36;;;;;;;3.58;1.40;;;17.00;97.80;;;;;;4994122;28;20190;-64
2022/11/02 10:00:02;;;;;;;5.53;3.63;;;17.10;97.70;;;;;;5009011;28;20179;-64
2022/11/02 10:02:54;;;;;;;3.10;1.92;;;17.00;97.70;;;;;;5005914;28;20214;-64
2022/11/02 10:05:57;;;;;;;4.10;1.88;;;17.00;97.70;;;;;;5004600;28;20739;-63
2022/11/02 10:08:34;;;;;;;4.25;2.38;;;17.10;97.00;;;;;;5003832;28;20182;-63
2022/11/02 10:11:23;;;;;;;2.60;1.52;;;17.30;96.80;;;;;;5010276;28;20598;-64
2022/11/02 10:14:04;;;;;;;4.88;2.17;;;17.60;96.90;;;;;;5007710;28;20184;-64
2022/11/02 10:16:33;;;;;;;3.20;1.85;;;17.00;96.50;;;;;;5003415;28;20253;-64
2022/11/02 10:18:59;;;;;;;5.38;2.38;;;17.40;97.30;;;;;;5009705;28;20252;-64
2022/11/02 10:21:33;;;;;;;3.70;1.63;;;17.50;97.40;;;;;;5009822;28;20595;-64
2022/11/02 10:24:17;;;;;;;5.65;1.95;;;17.70;97.60;;;;;;5003663;28;20527;-64
2022/11/02 10:26:42;;;;;;;4.30;1.42;;;18.00;96.70;;;;;;5010196;28;20183;-64
2022/11/02 10:29:26;;;;;;;6.80;1.80;;;17.60;95.80;;;;;;5012974;28;20265;-64
2022/11/02 10:31:51;;;;;;;4.82;2.03;;;17.50;94.90;;;;;;5012666;28;20604;-65
2022/11/02 10:34:22;;;;;;;7.47;3.90;;;17.70;94.70;;;;;;5018584;28;20861;-64
2022/11/02 10:37:19;;;;;;;5.72;1.85;;;17.70;94.70;;;;;;5010028;28;20240;-65
2022/11/02 10:40:06;;;;;;;2.72;2.00;;;17.30;94.30;;;;;;5010455;28;20187;-64
2022/11/02 10:42:51;;;;;;;3.95;1.75;;;17.80;94.90;;;;;;5008173;28;20213;-64
2022/11/02 10:45:29;;;;;;;4.07;1.40;;;17.70;94.10;;;;;;5013596;28;20206;-63
2022/11/02 10:48:35;;;;;;;1.77;1.23;;;17.80;94.20;;;;;;5009718;28;20261;-64
2022/11/02 10:51:11;;;;;;;3.08;1.40;;;17.60;93.80;;;;;;5009727;28;20643;-65
2022/11/02 10:53:49;;;;;;;3.53;2.15;;;17.50;93.90;;;;;;4995904;28;20187;-65
2022/11/02 10:56:23;;;;;;;3.85;2.15;;;17.50;93.80;;;;;;5006367;28;20203;-64
2022/11/02 10:59:00;;;;;;;6.25;2.47;;;17.50;94.00;;;;;;5008051;28;20658;-64
2022/11/02 11:01:27;;;;;;;2.88;1.60;;;17.60;94.20;;;;;;5009522;28;20189;-65
2022/11/02 11:04:00;;;;;;;9.20;7.70;;;17.60;93.80;;;;;;4991484;28;20211;-64
2022/11/02 11:06:29;;;;;;;4.97;3.00;;;17.60;94.30;;;;;;5009682;28;20195;-64
2022/11/02 11:09:22;;;;;;;3.55;1.95;;;17.40;94.50;;;;;;5008578;28;20319;-64
2022/11/02 11:12:00;;;;;;;5.75;2.20;;;17.40;94.10;;;;;;4989598;28;20195;-64
2022/11/02 11:14:28;;;;;;;6.25;2.15;;;17.30;94.00;;;;;;5004903;28;20672;-64
2022/11/02 11:16:57;;;;;;;3.13;1.55;;;17.40;94.20;;;;;;5004844;28;20187;-64
2022/11/02 11:19:33;;;;;;;3.95;1.73;;;17.50;94.20;;;;;;5009301;28;20194;-64
2022/11/02 11:21:59;;;;;;;3.60;1.80;;;17.50;94.30;;;;;;5009151;28;20226;-64
2022/11/02 11:24:32;;;;;;;4.50;2.00;;;17.10;95.20;;;;;;4992902;28;20550;-66
2022/11/02 11:27:14;;;;;;;5.50;1.50;;;17.40;95.20;;;;;;5005881;28;20527;-65
2022/11/02 11:29:47;;;;;;;5.95;2.05;;;17.10;94.40;;;;;;5009567;28;20563;-65
2022/11/02 11:32:24;;;;;;;3.33;1.52;;;17.20;94.80;;;;;;5013148;28;20475;-65
2022/11/02 11:34:59;;;;;;;1.60;1.48;;;17.30;94.50;;;;;;5010432;28;20217;-65
2022/11/02 11:37:25;;;;;;;4.85;2.10;;;17.10;94.50;;;;;;5012308;28;20269;-65
2022/11/02 11:40:15;;;;;;;5.07;2.10;;;17.20;94.20;;;;;;5011029;28;20531;-65
2022/11/02 11:42:42;;;;;;;3.03;1.50;;;17.00;94.30;;;;;;5011837;28;20329;-65
2022/11/02 11:45:20;;;;;;;2.95;1.60;;;17.10;94.50;;;;;;5000004;28;20202;-65
2022/11/02 11:47:52;;;;;;;4.70;1.80;;;17.30;94.50;;;;;;5011848;28;20258;-65
2022/11/02 11:50:18;;;;;;;5.43;1.90;;;17.40;94.20;;;;;;5023022;28;20648;-63
2022/11/02 11:52:43;;;;;;;4.40;1.70;;;17.20;94.10;;;;;;5014721;28;20197;-63
2022/11/02 11:55:27;;;;;;;5.00;2.17;;;17.50;93.90;;;;;;5012331;28;20230;-63
2022/11/02 11:58:12;;;;;;;2.88;1.48;;;17.10;93.70;;;;;;5010412;28;20280;-65
2022/11/02 12:00:38;;;;;;;3.15;2.08;;;17.30;94.10;;;;;;5012271;28;20186;-63
2022/11/02 12:03:09;;;;;;;6.57;2.60;;;17.50;94.30;;;;;;5007082;28;20668;-63
2022/11/02 12:06:00;;;;;;;4.15;1.80;;;17.40;93.20;;;;;;5012362;28;20248;-63
2022/11/02 12:08:32;;;;;;;4.03;1.83;;;17.50;93.10;;;;;;5007366;28;20691;-64
2022/11/02 12:11:10;;;;;;;3.65;1.33;;;17.60;93.00;;;;;;5012310;28;20530;-64
2022/11/02 12:14:17;;;;;;;3.95;1.50;;;17.80;92.30;;;;;;5012419;28;20745;-64
2022/11/02 12:17:30;;;;;;;4.30;3.00;;;17.40;92.10;;;;;;4996796;28;20244;-64
2022/11/02 12:20:18;;;;;;;2.47;1.73;;;17.50;91.90;;;;;;4983550;28;20218;-65
2022/11/02 12:23:00;;;;;;;3.10;1.40;;;17.50;91.90;;;;;;5009326;28;20636;-64
2022/11/02 12:25:47;;;;;;;6.53;3.25;;;17.70;91.50;;;;;;5012663;28;20548;-64
2022/11/02 12:28:27;;;;;;;4.20;2.10;;;17.50;91.50;;;;;;5009725;28;20562;-64
2022/11/02 12:31:15;;;;;;;6.93;2.00;;;17.60;91.40;;;;;;5018086;28;20182;-62
2022/11/02 12:33:43;;;;;;;5.72;1.63;;;17.50;90.50;;;;;;5002147;28;20183;-63
2022/11/02 12:36:51;;;;;;;5.78;2.35;;;17.40;90.00;;;;;;5018249;28;20210;-63
2022/11/02 12:39:26;;;;;;;4.72;1.90;;;17.50;89.90;;;;;;5011113;28;20183;-63
2022/11/02 12:41:54;;;;;;;7.15;1.60;;;17.70;89.50;;;;;;5012045;28;20323;-65
2022/11/02 12:44:20;;;;;;;3.13;1.80;;;17.80;90.30;;;;;;5012716;28;20606;-64
2022/11/02 12:47:03;;;;;;;3.30;1.60;;;17.60;89.20;;;;;;5010480;28;20257;-63
2022/11/02 12:49:38;;;;;;;4.53;1.35;;;17.60;88.90;;;;;;5011546;28;20203;-64
2022/11/02 12:52:15;;;;;;;4.05;2.00;;;17.60;89.10;;;;;;5009940;28;20178;-63
2022/11/02 12:54:52;;;;;;;1.80;1.20;;;17.60;88.20;;;;;;5006458;28;20209;-64
2022/11/02 12:57:21;;;;;;;3.55;1.58;;;17.70;89.90;;;;;;5011116;28;20615;-64
2022/11/02 12:59:55;;;;;;;2.63;1.30;;;17.70;89.80;;;;;;5011127;28;20191;-64
2022/11/02 13:02:36;;;;;;;2.92;1.40;;;17.60;88.30;;;;;;5005072;28;20203;-63
2022/11/02 13:05:08;;;;;;;3.10;1.63;;;17.60;89.10;;;;;;5010411;28;20237;-64
2022/11/02 13:08:08;;;;;;;3.10;1.83;;;17.40;89.00;;;;;;5009929;28;20190;-64
2022/11/02 13:10:42;;;;;;;3.15;1.90;;;17.50;88.40;;;;;;4979196;28;20294;-63
2022/11/02 13:13:15;;;;;;;5.15;1.77;;;17.40;89.00;;;;;;5010877;28;20221;-64
2022/11/02 13:15:44;;;;;;;2.65;1.30;;;17.50;88.00;;;;;;5010506;28;20213;-64
2022/11/02 13:18:13;;;;;;;5.10;1.75;;;17.50;88.30;;;;;;5009177;28;20274;-64